createdAt,value
2022-11-14T00:02:40.767Z,4.22
2022-11-14T00:05:45.245Z,4.10
2022-11-14T00:11:49.170Z,4.85
2022-11-14T00:14:52.026Z,5.82
2022-11-14T00:17:54.028Z,4.93
2022-11-14T00:20:56.250Z,4.78
2022-11-14T00:23:58.286Z,5.30
2022-11-14T00:27:00.580Z,5.65
2022-11-14T00:30:02.701Z,5.97
2022-11-14T00:33:04.893Z,5.88
2022-11-14T00:36:07.138Z,5.32
2022-11-14T00:39:13.435Z,5.75
2022-11-14T00:42:15.549Z,7.32
2022-11-14T00:45:17.657Z,6.40
2022-11-14T00:48:20.285Z,5.90
2022-11-14T00:51:23.585Z,5.93
2022-11-14T00:54:26.818Z,7.10
2022-11-14T00:57:31.680Z,6.15
2022-11-14T01:00:34.887Z,5.03
2022-11-14T01:03:37.042Z,5.45
2022-11-14T01:06:39.058Z,5.60
2022-11-14T01:09:41.380Z,5.32
2022-11-14T01:12:43.430Z,5.53
2022-11-14T01:15:48.965Z,4.82
2022-11-14T01:18:51.030Z,5.45
2022-11-14T01:21:53.070Z,4.75
2022-11-14T01:24:55.353Z,5.05
2022-11-14T01:27:57.388Z,7.00
2022-11-14T01:31:15.156Z,7.75
2022-11-14T01:34:17.291Z,7.32
2022-11-14T01:37:19.405Z,6.85
2022-11-14T01:40:23.368Z,8.07
2022-11-14T01:43:28.810Z,6.43
2022-11-14T01:46:37.188Z,5.28
2022-11-14T01:49:44.095Z,4.40
2022-11-14T01:52:46.715Z,4.57
2022-11-14T01:55:49.222Z,4.88
2022-11-14T01:59:00.628Z,3.55
2022-11-14T02:02:12.901Z,3.10
2022-11-14T02:05:18.029Z,3.88
2022-11-14T02:08:21.571Z,3.35
2022-11-14T02:11:24.022Z,4.40
2022-11-14T02:14:28.206Z,4.40
2022-11-14T02:17:31.398Z,4.45
2022-11-14T02:20:43.126Z,5.20
2022-11-14T02:23:45.327Z,5.18
2022-11-14T02:26:50.386Z,5.40
2022-11-14T02:29:54.221Z,4.10
2022-11-14T02:33:10.468Z,2.90
2022-11-14T02:36:13.169Z,3.47
2022-11-14T02:39:15.217Z,3.10
2022-11-14T02:42:17.320Z,2.10
2022-11-14T02:45:20.996Z,4.10
2022-11-14T02:48:23.059Z,1.60
2022-11-14T02:51:25.048Z,2.08
2022-11-14T02:54:27.209Z,1.33
2022-11-14T02:57:29.398Z,2.17
2022-11-14T03:00:31.676Z,1.77
2022-11-14T03:03:33.768Z,2.45
2022-11-14T03:06:35.812Z,1.52
2022-11-14T03:09:37.807Z,1.45
2022-11-14T03:12:40.260Z,1.52
2022-11-14T03:15:42.278Z,1.60
2022-11-14T03:18:44.603Z,1.77
2022-11-14T03:21:46.640Z,1.50
2022-11-14T03:24:48.672Z,1.33
2022-11-14T03:27:50.691Z,1.38
2022-11-14T03:30:52.694Z,2.92
2022-11-14T03:33:54.753Z,1.73
2022-11-14T03:36:56.872Z,2.08
2022-11-14T03:39:59.009Z,1.85
2022-11-14T03:43:01.064Z,2.10
2022-11-14T03:46:03.896Z,2.70
2022-11-14T03:49:06.379Z,1.98
2022-11-14T03:52:08.530Z,1.92
2022-11-14T03:55:10.602Z,4.07
2022-11-14T03:58:12.833Z,3.38
2022-11-14T04:01:14.955Z,2.75
2022-11-14T04:04:17.001Z,3.08
2022-11-14T04:07:19.094Z,3.28
2022-11-14T04:10:21.276Z,3.65
2022-11-14T04:13:24.497Z,4.85
2022-11-14T04:16:27.489Z,4.70
2022-11-14T04:19:29.564Z,5.15
2022-11-14T04:22:31.507Z,3.30
2022-11-14T04:25:33.574Z,3.00
2022-11-14T04:28:35.617Z,2.47
2022-11-14T04:31:37.676Z,3.13
2022-11-14T04:34:39.883Z,2.65
2022-11-14T04:37:41.880Z,2.10
2022-11-14T04:40:51.601Z,1.40
2022-11-14T04:43:53.798Z,1.95
2022-11-14T04:46:55.858Z,1.42
2022-11-14T04:49:57.868Z,1.30
2022-11-14T04:53:00.220Z,1.52
2022-11-14T04:56:02.708Z,0.90
2022-11-14T04:59:04.760Z,0.98
2022-11-14T05:02:07.225Z,1.67
2022-11-14T05:05:09.739Z,0.63
2022-11-14T05:08:11.807Z,1.50
2022-11-14T05:11:18.745Z,1.33
2022-11-14T05:14:22.015Z,1.10
2022-11-14T05:17:28.649Z,1.35
2022-11-14T05:20:31.249Z,1.00
2022-11-14T05:23:33.335Z,0.75
2022-11-14T05:26:35.405Z,0.55
2022-11-14T05:29:37.456Z,0.68
2022-11-14T05:32:39.544Z,0.50
2022-11-14T05:35:41.531Z,0.98
2022-11-14T05:38:43.873Z,0.75
2022-11-14T05:41:45.917Z,0.65
2022-11-14T05:44:48.063Z,0.60
2022-11-14T05:47:54.251Z,0.67
2022-11-14T05:50:58.094Z,0.93
2022-11-14T05:54:00.248Z,0.20
2022-11-14T05:57:02.558Z,1.13
2022-11-14T06:00:06.062Z,0.33
2022-11-14T06:03:08.337Z,0.47
2022-11-14T06:06:12.988Z,0.47
2022-11-14T06:09:15.178Z,0.40
2022-11-14T06:12:17.253Z,0.32
2022-11-14T06:15:19.501Z,1.00
2022-11-14T06:18:21.515Z,1.77
2022-11-14T06:21:25.618Z,1.90
2022-11-14T06:24:27.860Z,1.63
2022-11-14T06:27:30.426Z,1.48
2022-11-14T06:30:32.801Z,1.50
2022-11-14T06:33:36.696Z,2.35
2022-11-14T06:36:39.224Z,1.63
2022-11-14T06:39:41.470Z,2.15
2022-11-14T06:42:44.431Z,1.58
2022-11-14T06:45:46.494Z,2.20
2022-11-14T06:48:49.935Z,1.40
2022-11-14T06:51:52.395Z,2.13
2022-11-14T06:54:54.504Z,2.55
2022-11-14T06:57:57.796Z,1.70
2022-11-14T07:01:07.832Z,1.98
2022-11-14T07:04:10.184Z,1.58
2022-11-14T07:07:12.166Z,1.20
2022-11-14T07:10:14.494Z,2.63
2022-11-14T07:13:16.511Z,2.53
2022-11-14T07:16:19.301Z,1.65
2022-11-14T07:19:21.364Z,1.50
2022-11-14T07:22:23.519Z,2.10
2022-11-14T07:25:25.632Z,1.45
2022-11-14T07:28:29.280Z,2.05
2022-11-14T07:31:31.848Z,1.95
2022-11-14T07:34:34.478Z,2.30
2022-11-14T07:37:39.387Z,1.05
2022-11-14T07:40:41.407Z,1.75
2022-11-14T07:43:44.108Z,1.95
2022-11-14T07:46:46.228Z,1.15
2022-11-14T07:49:48.561Z,1.33
2022-11-14T07:52:52.463Z,3.30
2022-11-14T07:55:54.891Z,1.10
2022-11-14T07:58:59.029Z,1.30
2022-11-14T08:02:02.635Z,0.80
2022-11-14T08:05:05.137Z,0.82
2022-11-14T08:08:07.296Z,0.85
2022-11-14T08:11:09.774Z,0.60
2022-11-14T08:14:11.799Z,2.50
2022-11-14T08:17:13.933Z,0.93
2022-11-14T08:20:16.160Z,0.70
2022-11-14T08:23:18.479Z,0.85
2022-11-14T08:26:20.620Z,0.50
2022-11-14T08:29:22.859Z,0.50
2022-11-14T08:32:25.233Z,1.67
2022-11-14T08:35:27.307Z,2.33
2022-11-14T08:38:31.238Z,1.25
2022-11-14T08:41:33.533Z,1.13
2022-11-14T08:44:35.823Z,1.00
2022-11-14T08:47:38.123Z,1.58
2022-11-14T08:50:40.203Z,1.30
2022-11-14T08:53:42.369Z,1.15
2022-11-14T08:56:44.536Z,2.47
2022-11-14T08:59:46.723Z,3.53
2022-11-14T09:02:48.823Z,2.40
2022-11-14T09:05:54.049Z,2.90
2022-11-14T09:08:56.244Z,3.88
2022-11-14T09:11:58.434Z,3.90
2022-11-14T09:15:00.634Z,3.60
2022-11-14T09:18:02.909Z,2.70
2022-11-14T09:21:08.468Z,3.20
2022-11-14T09:24:10.608Z,3.47
2022-11-14T09:27:13.516Z,3.50
2022-11-14T09:30:16.033Z,2.42
2022-11-14T09:33:20.262Z,3.90
2022-11-14T09:36:23.277Z,3.05
2022-11-14T09:39:25.397Z,4.28
2022-11-14T09:42:51.062Z,2.95
2022-11-14T09:45:53.902Z,2.38
2022-11-14T09:48:56.686Z,3.50
2022-11-14T09:52:21.550Z,3.33
2022-11-14T09:55:36.464Z,2.80
2022-11-14T09:58:41.072Z,3.00
2022-11-14T10:02:00.583Z,2.60
2022-11-14T10:05:11.484Z,3.65
2022-11-14T10:08:16.337Z,2.80
2022-11-14T10:11:21.512Z,1.95
2022-11-14T10:14:50.073Z,2.72
2022-11-14T10:17:55.133Z,2.20
2022-11-14T10:21:10.901Z,3.13
2022-11-14T10:24:46.485Z,2.10
2022-11-14T10:28:07.192Z,1.70
2022-11-14T10:31:27.218Z,0.75
2022-11-14T10:34:38.380Z,1.52
2022-11-14T10:38:02.246Z,1.17
2022-11-14T10:41:19.214Z,2.53
2022-11-14T10:44:36.951Z,2.85
2022-11-14T10:47:46.427Z,1.90
2022-11-14T10:51:00.327Z,1.67
2022-11-14T10:54:27.390Z,2.22
2022-11-14T10:57:30.362Z,1.58
2022-11-14T11:00:32.623Z,3.00
2022-11-14T11:03:43.098Z,0.85
2022-11-14T11:06:45.232Z,1.88
2022-11-14T11:10:17.547Z,1.55
2022-11-14T11:13:32.961Z,8.05
2022-11-14T11:16:38.357Z,4.00
2022-11-14T11:19:43.608Z,2.30
2022-11-14T11:22:45.728Z,2.72
2022-11-14T11:26:00.477Z,4.10
2022-11-14T11:29:04.505Z,1.67
2022-11-14T11:32:09.389Z,2.78
2022-11-14T11:35:16.916Z,1.55
2022-11-14T11:38:20.140Z,2.95
2022-11-14T11:42:07.703Z,1.25
2022-11-14T11:45:02.588Z,4.30
2022-11-14T11:48:16.523Z,3.88
2022-11-14T11:51:24.548Z,4.18
2022-11-14T11:54:36.469Z,2.25
2022-11-14T11:57:44.343Z,2.72
2022-11-14T12:00:46.471Z,1.58
2022-11-14T12:03:53.451Z,2.03
2022-11-14T12:07:08.670Z,3.83
2022-11-14T12:10:24.219Z,1.77
2022-11-14T12:13:44.997Z,1.40
2022-11-14T12:16:57.893Z,2.05
2022-11-14T12:20:18.621Z,1.10
2022-11-14T12:23:33.039Z,3.20
2022-11-14T12:27:11.291Z,1.33
2022-11-14T12:30:29.518Z,1.88
2022-11-14T12:33:38.319Z,1.60
2022-11-14T12:36:43.201Z,1.95
2022-11-14T12:40:00.327Z,0.75
2022-11-14T12:43:04.071Z,1.63
2022-11-14T12:46:09.323Z,1.85
2022-11-14T12:49:46.600Z,2.33
2022-11-14T12:52:50.901Z,1.15
2022-11-14T12:56:33.204Z,2.70
2022-11-14T12:59:45.508Z,1.45
2022-11-14T13:03:02.257Z,2.35
2022-11-14T13:06:32.451Z,1.02
2022-11-14T13:09:59.245Z,2.75
2022-11-14T13:13:29.991Z,1.70
2022-11-14T13:16:51.686Z,1.20
2022-11-14T13:20:12.340Z,0.98
2022-11-14T13:23:27.163Z,0.95
2022-11-14T13:26:33.126Z,0.77
2022-11-14T13:29:41.314Z,1.25
2022-11-14T13:32:46.789Z,0.60
2022-11-14T13:35:54.335Z,0.95
2022-11-14T13:39:24.256Z,1.20
2022-11-14T13:42:30.978Z,1.90
2022-11-14T13:46:01.598Z,1.45
2022-11-14T13:49:36.457Z,0.88
2022-11-14T13:52:47.735Z,1.02
2022-11-14T13:56:01.477Z,0.80
2022-11-14T13:59:37.680Z,1.58
2022-11-14T14:03:03.359Z,0.85
2022-11-14T14:06:12.399Z,2.47
2022-11-14T14:09:29.300Z,2.25
2022-11-14T14:12:52.700Z,1.63
2022-11-14T14:16:22.860Z,1.20
2022-11-14T14:20:01.727Z,0.82
2022-11-14T14:23:25.203Z,1.20
2022-11-14T14:26:55.821Z,3.03
2022-11-14T14:30:09.106Z,1.30
2022-11-14T14:33:15.679Z,0.70
2022-11-14T14:36:23.956Z,0.73
2022-11-14T14:39:28.046Z,1.00
2022-11-14T14:42:41.705Z,3.15
2022-11-14T14:45:51.532Z,1.55
2022-11-14T14:48:54.143Z,2.13
2022-11-14T14:51:58.713Z,1.10
2022-11-14T14:55:03.137Z,1.15
2022-11-14T14:58:23.496Z,1.00
2022-11-14T15:01:35.422Z,1.83
2022-11-14T15:04:40.270Z,1.65
2022-11-14T15:07:42.342Z,1.50
2022-11-14T15:10:45.143Z,1.20
2022-11-14T15:13:52.668Z,1.00
2022-11-14T15:16:56.452Z,0.75
2022-11-14T15:19:58.597Z,1.45
2022-11-14T15:23:05.972Z,5.18
2022-11-14T15:26:14.837Z,2.08
2022-11-14T15:29:23.082Z,1.48
2022-11-14T15:32:26.475Z,1.35
2022-11-14T15:35:37.549Z,2.67
2022-11-14T15:38:44.256Z,1.35
2022-11-14T15:41:46.560Z,0.77
2022-11-14T15:44:49.617Z,0.75
2022-11-14T15:48:00.399Z,1.60
2022-11-14T15:51:02.522Z,2.20
2022-11-14T15:54:06.010Z,1.75
2022-11-14T15:57:16.826Z,0.65
2022-11-14T16:00:19.559Z,1.23
2022-11-14T16:03:23.031Z,0.70
2022-11-14T16:06:25.221Z,0.77
2022-11-14T16:09:27.504Z,1.42
2022-11-14T16:12:29.723Z,1.35
2022-11-14T16:15:31.856Z,1.70
2022-11-14T16:18:34.087Z,1.55
2022-11-14T16:21:37.717Z,1.20
2022-11-14T16:24:39.994Z,1.48
2022-11-14T16:27:42.036Z,2.05
2022-11-14T16:30:44.108Z,1.42
2022-11-14T16:33:46.257Z,1.48
2022-11-14T16:36:48.866Z,2.33
2022-11-14T16:39:50.958Z,1.40
2022-11-14T16:42:58.051Z,2.97
2022-11-14T16:46:05.057Z,2.85
2022-11-14T16:49:07.143Z,1.80
2022-11-14T16:52:11.038Z,2.67
2022-11-14T16:55:13.272Z,2.13
2022-11-14T16:58:15.300Z,1.77
2022-11-14T17:01:21.060Z,3.70
2022-11-14T17:04:23.879Z,1.65
2022-11-14T17:07:25.990Z,1.52
2022-11-14T17:10:29.096Z,1.85
2022-11-14T17:13:32.010Z,2.45
2022-11-14T17:16:34.873Z,1.17
2022-11-14T17:19:45.828Z,1.40
2022-11-14T17:22:48.989Z,1.30
2022-11-14T17:25:51.055Z,18.00
2022-11-14T17:28:53.250Z,3.33
2022-11-14T17:31:55.566Z,1.38
2022-11-14T17:34:58.101Z,1.55
2022-11-14T17:38:00.534Z,2.65
2022-11-14T17:41:06.583Z,1.52
2022-11-14T17:44:09.922Z,1.05
2022-11-14T17:47:12.223Z,1.17
2022-11-14T17:50:14.583Z,1.50
2022-11-14T17:53:17.123Z,1.13
2022-11-14T17:56:24.628Z,1.45
2022-11-14T17:59:26.714Z,1.35
2022-11-14T18:02:29.009Z,1.25
2022-11-14T18:05:31.717Z,1.85
2022-11-14T18:08:35.377Z,1.45
2022-11-14T18:11:38.621Z,1.67
2022-11-14T18:14:40.895Z,1.90
2022-11-14T18:17:42.981Z,2.75
2022-11-14T18:20:45.060Z,1.83
2022-11-14T18:23:52.122Z,2.20
2022-11-14T18:26:55.677Z,1.65
2022-11-14T18:30:07.946Z,3.30
2022-11-14T18:33:15.903Z,2.85
2022-11-14T18:36:18.507Z,2.38
2022-11-14T18:39:20.553Z,2.10
2022-11-14T18:42:22.855Z,3.63
2022-11-14T18:45:24.954Z,3.13
2022-11-14T18:48:27.222Z,2.45
2022-11-14T18:51:30.982Z,2.22
2022-11-14T18:54:33.144Z,2.03
2022-11-14T18:57:36.089Z,3.63
2022-11-14T19:00:38.280Z,2.70
2022-11-14T19:03:40.846Z,3.50
2022-11-14T19:06:43.844Z,3.33
2022-11-14T19:09:46.054Z,6.20
2022-11-14T19:12:48.992Z,3.30
2022-11-14T19:15:51.308Z,2.60
2022-11-14T19:18:54.773Z,2.53
2022-11-14T19:21:57.832Z,3.10
2022-11-14T19:24:59.810Z,4.07
2022-11-14T19:28:01.889Z,3.05
2022-11-14T19:31:08.453Z,2.63
2022-11-14T19:34:10.498Z,3.65
2022-11-14T19:37:12.767Z,2.83
2022-11-14T19:40:14.974Z,2.35
2022-11-14T19:43:21.043Z,3.50
2022-11-14T19:46:25.390Z,4.45
2022-11-14T19:49:27.535Z,2.20
2022-11-14T19:52:29.553Z,2.65
2022-11-14T19:55:32.286Z,3.28
2022-11-14T19:58:38.055Z,2.78
2022-11-14T20:01:42.220Z,2.25
2022-11-14T20:04:46.806Z,2.55
2022-11-14T20:07:48.884Z,2.92
2022-11-14T20:11:02.638Z,3.13
2022-11-14T20:14:06.212Z,2.23
2022-11-14T20:17:08.187Z,3.13
2022-11-14T20:20:11.465Z,2.53
2022-11-14T20:23:13.743Z,3.17
2022-11-14T20:26:17.099Z,1.90
2022-11-14T20:29:19.127Z,2.88
2022-11-14T20:32:21.213Z,2.22
2022-11-14T20:35:23.315Z,1.77
2022-11-14T20:38:25.318Z,2.22
2022-11-14T20:41:27.386Z,1.80
2022-11-14T20:44:29.478Z,2.65
2022-11-14T20:47:32.455Z,2.13
2022-11-14T20:50:34.548Z,2.28
2022-11-14T20:53:36.575Z,2.20
2022-11-14T20:56:38.712Z,1.50
2022-11-14T20:59:42.009Z,1.65
2022-11-14T21:02:44.087Z,1.50
2022-11-14T21:05:46.384Z,1.20
2022-11-14T21:08:48.462Z,1.63
2022-11-14T21:11:50.507Z,1.30
2022-11-14T21:14:52.913Z,1.83
2022-11-14T21:17:55.140Z,2.38
2022-11-14T21:21:04.571Z,5.20
2022-11-14T21:24:07.383Z,2.38
2022-11-14T21:27:13.141Z,2.28
2022-11-14T21:30:15.462Z,2.50
2022-11-14T21:33:17.510Z,1.60
2022-11-14T21:36:43.866Z,1.98
2022-11-14T21:39:42.493Z,1.55
2022-11-14T21:42:44.578Z,2.08
2022-11-14T21:46:02.118Z,2.50
2022-11-14T21:49:04.398Z,1.20
2022-11-14T21:52:06.695Z,1.33
2022-11-14T21:55:08.858Z,1.00
2022-11-14T21:58:12.875Z,1.00
2022-11-14T22:01:37.766Z,1.83
2022-11-14T22:04:39.897Z,0.77
2022-11-14T22:07:42.299Z,1.40
2022-11-14T22:10:44.418Z,1.08
2022-11-14T22:13:46.487Z,2.17
2022-11-14T22:16:48.885Z,1.95
2022-11-14T22:19:50.898Z,1.48
2022-11-14T22:22:54.835Z,1.33
2022-11-14T22:25:58.917Z,1.30
2022-11-14T22:29:00.983Z,2.40
2022-11-14T22:32:03.006Z,1.92
2022-11-14T22:35:05.882Z,1.50
2022-11-14T22:38:07.936Z,1.80
2022-11-14T22:41:13.519Z,1.55
2022-11-14T22:44:17.184Z,5.20
2022-11-14T22:47:19.431Z,2.08
2022-11-14T22:50:21.701Z,2.67
2022-11-14T22:53:24.120Z,2.25
2022-11-14T22:56:29.238Z,2.63
2022-11-14T22:59:31.335Z,2.10
2022-11-14T23:02:33.338Z,3.08
2022-11-14T23:05:39.289Z,1.98
2022-11-14T23:08:43.678Z,1.30
2022-11-14T23:11:49.133Z,1.73
2022-11-14T23:14:51.485Z,1.27
2022-11-14T23:21:14.854Z,1.25
2022-11-14T23:24:19.613Z,1.77
2022-11-14T23:27:21.797Z,2.03
2022-11-14T23:30:23.965Z,1.38
2022-11-14T23:33:26.080Z,2.20
2022-11-14T23:36:28.759Z,1.25
2022-11-14T23:39:30.946Z,1.35
2022-11-14T23:42:33.311Z,2.13
2022-11-14T23:45:35.444Z,1.95
2022-11-14T23:48:37.555Z,1.55
2022-11-14T23:51:39.733Z,2.30
2022-11-14T23:54:41.778Z,2.22
2022-11-14T23:57:44.958Z,1.83
